Time;durP1;ratioP1;P1;durP2;ratioP2;P2;SDS_P1;SDS_P2;PMS_P1;PMS_P2;Temp;Humidity;BMP_temperature;BMP_pressure;BME280_temperature;BME280_humidity;BME280_pressure;Samples;Min_cycle;Max_cycle;Signal;HPM_P1;HPM_P2
2023/10/29 00:00:17;;;;;;;5.07;2.20;;;;;;;;;;5049866;28;20241;-29
2023/10/29 00:02:45;;;;;;;3.63;2.53;;;;;;;;;;5043488;28;20269;-30
2023/10/29 00:05:12;;;;;;;2.60;2.40;;;;;;;;;;5046315;28;20230;-30
2023/10/29 00:07:40;;;;;;;3.20;2.40;;;;;;;;;;5049840;28;20206;-30
2023/10/29 00:10:08;;;;;;;4.07;2.60;;;;;;;;;;5038373;28;20219;-32
2023/10/29 00:12:36;;;;;;;3.53;2.90;;;;;;;;;;5049065;28;20198;-33
2023/10/29 00:15:03;;;;;;;3.13;2.40;;;;;;;;;;5049828;28;20225;-31
2023/10/29 00:17:30;;;;;;;4.53;2.37;;;;;;;;;;5049104;28;20214;-29
2023/10/29 00:19:59;;;;;;;3.03;2.27;;;;;;;;;;5042011;28;20210;-35
2023/10/29 00:22:26;;;;;;;3.87;2.23;;;;;;;;;;5047296;28;20205;-31
2023/10/29 00:24:55;;;;;;;2.63;2.10;;;;;;;;;;5045573;28;20261;-31
2023/10/29 00:27:22;;;;;;;2.93;2.33;;;;;;;;;;5044333;28;20225;-31
2023/10/29 00:29:49;;;;;;;3.40;2.27;;;;;;;;;;5050165;28;20209;-31
2023/10/29 00:32:18;;;;;;;4.40;2.37;;;;;;;;;;5048806;28;20216;-29
2023/10/29 00:34:46;;;;;;;3.17;2.27;;;;;;;;;;5039391;28;20226;-31
2023/10/29 00:37:13;;;;;;;3.10;2.17;;;;;;;;;;5049225;28;20213;-31
2023/10/29 00:39:40;;;;;;;2.47;2.27;;;;;;;;;;5031396;28;20212;-32
2023/10/29 00:42:10;;;;;;;2.53;2.07;;;;;;;;;;5044068;28;20210;-31
2023/10/29 00:44:38;;;;;;;3.23;2.13;;;;;;;;;;5048588;28;20232;-30
2023/10/29 00:47:06;;;;;;;2.73;2.20;;;;;;;;;;5041115;28;20214;-33
2023/10/29 00:49:33;;;;;;;4.83;2.30;;;;;;;;;;5048169;28;20210;-31
2023/10/29 00:52:00;;;;;;;2.93;2.20;;;;;;;;;;5048703;28;20205;-32
2023/10/29 00:54:27;;;;;;;4.40;2.30;;;;;;;;;;5043844;28;20229;-31
2023/10/29 00:56:55;;;;;;;2.10;1.90;;;;;;;;;;5043293;28;20206;-31
2023/10/29 00:59:23;;;;;;;3.73;2.30;;;;;;;;;;5048828;28;20206;-30
2023/10/29 01:01:50;;;;;;;5.03;2.00;;;;;;;;;;5040913;28;20695;-31
2023/10/29 01:04:18;;;;;;;3.33;2.50;;;;;;;;;;5046865;28;20527;-32
2023/10/29 01:06:47;;;;;;;2.87;2.00;;;;;;;;;;5048288;28;20232;-30
2023/10/29 01:09:14;;;;;;;4.07;2.30;;;;;;;;;;5041314;28;20218;-30
2023/10/29 01:11:41;;;;;;;3.30;1.80;;;;;;;;;;5036745;28;20217;-30
2023/10/29 01:14:09;;;;;;;3.50;2.40;;;;;;;;;;5048859;28;20267;-31
2023/10/29 01:16:38;;;;;;;2.27;1.87;;;;;;;;;;5045134;28;20198;-31
2023/10/29 01:19:06;;;;;;;3.00;1.90;;;;;;;;;;5044044;28;20283;-30
2023/10/29 01:21:33;;;;;;;3.77;2.30;;;;;;;;;;5047813;28;20220;-29
2023/10/29 01:24:02;;;;;;;3.77;1.97;;;;;;;;;;5044424;28;20233;-31
2023/10/29 01:26:29;;;;;;;2.20;2.00;;;;;;;;;;5048140;28;20230;-32
2023/10/29 01:28:55;;;;;;;2.33;2.03;;;;;;;;;;5049002;28;20197;-29
2023/10/29 01:31:22;;;;;;;2.13;1.80;;;;;;;;;;5048008;28;20205;-30
2023/10/29 01:33:51;;;;;;;3.53;1.80;;;;;;;;;;5041932;28;20230;-34
2023/10/29 01:36:18;;;;;;;2.80;1.90;;;;;;;;;;5048832;28;20398;-30
2023/10/29 01:38:45;;;;;;;2.00;1.77;;;;;;;;;;5036329;28;20202;-29
2023/10/29 01:41:13;;;;;;;2.03;1.80;;;;;;;;;;5040969;28;20202;-31
2023/10/29 01:43:41;;;;;;;2.07;1.67;;;;;;;;;;5043855;28;20226;-31
2023/10/29 01:46:09;;;;;;;1.67;1.57;;;;;;;;;;5044995;28;20225;-30
2023/10/29 01:48:36;;;;;;;1.60;1.47;;;;;;;;;;5043073;28;20216;-30
2023/10/29 01:51:07;;;;;;;2.67;1.83;;;;;;;;;;5054332;28;20216;-30
2023/10/29 01:53:34;;;;;;;1.47;1.40;;;;;;;;;;5046798;28;20225;-33
2023/10/29 01:56:01;;;;;;;3.13;1.60;;;;;;;;;;5046594;28;20227;-32
2023/10/29 01:58:28;;;;;;;2.70;1.50;;;;;;;;;;5055819;28;20212;-31
2023/10/29 02:00:55;;;;;;;1.83;1.73;;;;;;;;;;5047056;28;20306;-29
2023/10/29 02:03:23;;;;;;;2.43;1.60;;;;;;;;;;5049441;28;20222;-31
2023/10/29 02:05:50;;;;;;;3.00;1.50;;;;;;;;;;5054703;28;20225;-31
2023/10/29 02:08:18;;;;;;;2.10;1.53;;;;;;;;;;5058045;28;20216;-30
2023/10/29 02:10:46;;;;;;;2.53;1.50;;;;;;;;;;5042599;28;20213;-30
2023/10/29 02:13:14;;;;;;;1.97;1.60;;;;;;;;;;5056740;28;20205;-31
2023/10/29 02:15:41;;;;;;;2.77;1.70;;;;;;;;;;5048186;28;20213;-30
2023/10/29 02:18:08;;;;;;;3.83;1.60;;;;;;;;;;5043707;28;20206;-30
2023/10/29 02:20:35;;;;;;;1.30;1.20;;;;;;;;;;5034583;28;20217;-33
2023/10/29 02:23:04;;;;;;;5.17;1.37;;;;;;;;;;5047739;28;20209;-29
2023/10/29 02:25:31;;;;;;;1.97;1.23;;;;;;;;;;5040526;28;20229;-31
2023/10/29 02:27:58;;;;;;;5.50;1.40;;;;;;;;;;5048063;28;20648;-32
2023/10/29 02:30:26;;;;;;;1.23;1.13;;;;;;;;;;5047461;28;20628;-30
2023/10/29 02:32:53;;;;;;;1.53;1.30;;;;;;;;;;5042121;28;20209;-30
2023/10/29 02:35:20;;;;;;;1.40;1.30;;;;;;;;;;5041370;28;20226;-30
2023/10/29 02:37:48;;;;;;;3.57;1.23;;;;;;;;;;5048174;28;20336;-29
2023/10/29 02:40:16;;;;;;;1.33;1.23;;;;;;;;;;5039722;28;20212;-30
2023/10/29 02:42:43;;;;;;;1.90;1.63;;;;;;;;;;5041137;28;20237;-32
2023/10/29 02:45:10;;;;;;;1.23;1.17;;;;;;;;;;5048379;28;20248;-32
2023/10/29 02:47:38;;;;;;;1.60;1.50;;;;;;;;;;5047546;28;20236;-30
2023/10/29 02:50:05;;;;;;;1.87;1.40;;;;;;;;;;5041976;28;20210;-31
2023/10/29 02:52:33;;;;;;;1.87;1.20;;;;;;;;;;5044420;28;20207;-29
2023/10/29 02:55:00;;;;;;;2.47;1.37;;;;;;;;;;5036214;28;20249;-31
2023/10/29 02:57:29;;;;;;;1.37;1.20;;;;;;;;;;5038211;28;20202;-30
2023/10/29 02:59:57;;;;;;;1.60;1.50;;;;;;;;;;5047906;28;20312;-32
2023/10/29 03:02:24;;;;;;;5.53;1.97;;;;;;;;;;5040239;28;20230;-30
2023/10/29 03:04:51;;;;;;;4.30;1.53;;;;;;;;;;5045162;28;20222;-29
2023/10/29 03:07:18;;;;;;;1.20;1.10;;;;;;;;;;5051854;28;20221;-30
2023/10/29 03:09:45;;;;;;;1.33;1.13;;;;;;;;;;5044450;28;20218;-30
2023/10/29 03:12:12;;;;;;;1.33;1.23;;;;;;;;;;5045655;28;20202;-29
2023/10/29 03:14:41;;;;;;;2.60;1.50;;;;;;;;;;5050683;28;20229;-31
2023/10/29 03:17:08;;;;;;;1.43;1.23;;;;;;;;;;5051517;28;20210;-31
2023/10/29 03:19:35;;;;;;;1.20;1.10;;;;;;;;;;5046341;28;20216;-33
2023/10/29 03:22:03;;;;;;;2.87;1.37;;;;;;;;;;5049259;28;20214;-31
2023/10/29 03:24:30;;;;;;;2.57;1.30;;;;;;;;;;5042323;28;20258;-32
2023/10/29 03:26:58;;;;;;;2.10;1.17;;;;;;;;;;5037707;28;20298;-32
2023/10/29 03:29:25;;;;;;;2.47;1.57;;;;;;;;;;5046391;28;20213;-31
2023/10/29 03:31:53;;;;;;;1.50;1.40;;;;;;;;;;5047855;28;20213;-32
2023/10/29 03:34:20;;;;;;;1.97;0.90;;;;;;;;;;5035690;28;20245;-30
2023/10/29 03:36:47;;;;;;;1.80;1.10;;;;;;;;;;5050186;28;20786;-30
2023/10/29 03:39:15;;;;;;;2.30;1.10;;;;;;;;;;5042807;28;20683;-31
2023/10/29 03:41:43;;;;;;;1.30;1.20;;;;;;;;;;5041711;28;20226;-29
2023/10/29 03:44:10;;;;;;;3.27;1.07;;;;;;;;;;5051059;28;20226;-34
2023/10/29 03:46:37;;;;;;;2.60;1.37;;;;;;;;;;5050449;28;20234;-30
2023/10/29 03:49:06;;;;;;;1.20;1.10;;;;;;;;;;5043720;28;20213;-30
2023/10/29 03:51:33;;;;;;;1.43;1.20;;;;;;;;;;5046526;28;20573;-36
2023/10/29 03:54:00;;;;;;;1.27;1.10;;;;;;;;;;5046547;28;20261;-29
2023/10/29 03:56:27;;;;;;;1.13;1.03;;;;;;;;;;5046381;28;20221;-31
2023/10/29 03:58:54;;;;;;;1.30;1.20;;;;;;;;;;5050881;28;20210;-30
2023/10/29 04:01:21;;;;;;;3.50;1.30;;;;;;;;;;5050497;28;20224;-30
2023/10/29 04:03:48;;;;;;;3.07;1.20;;;;;;;;;;5044202;28;20229;-30
2023/10/29 04:06:17;;;;;;;4.87;1.23;;;;;;;;;;5050524;28;20225;-29
2023/10/29 04:08:44;;;;;;;3.80;1.10;;;;;;;;;;5045735;28;20206;-31
2023/10/29 04:11:11;;;;;;;3.40;1.20;;;;;;;;;;5032575;28;20265;-34
2023/10/29 04:13:38;;;;;;;1.50;0.87;;;;;;;;;;5047779;28;20244;-31
2023/10/29 04:16:05;;;;;;;1.40;1.20;;;;;;;;;;5051336;28;20208;-29
2023/10/29 04:18:33;;;;;;;2.57;1.00;;;;;;;;;;5047120;28;20675;-31
2023/10/29 04:21:02;;;;;;;1.43;1.20;;;;;;;;;;5034957;28;20233;-31
2023/10/29 04:23:31;;;;;;;2.33;1.00;;;;;;;;;;5049911;28;20240;-31
2023/10/29 04:25:58;;;;;;;1.50;1.10;;;;;;;;;;5037004;28;20202;-30
2023/10/29 04:28:25;;;;;;;2.83;1.20;;;;;;;;;;5050404;28;20297;-32
2023/10/29 04:30:54;;;;;;;1.20;1.10;;;;;;;;;;5050317;28;20220;-30
2023/10/29 04:33:22;;;;;;;1.40;1.10;;;;;;;;;;5047201;28;20257;-29
2023/10/29 04:35:49;;;;;;;1.63;1.20;;;;;;;;;;5049213;28;20214;-31
2023/10/29 04:38:16;;;;;;;0.90;0.87;;;;;;;;;;5051376;28;20210;-30
2023/10/29 04:40:45;;;;;;;2.63;0.90;;;;;;;;;;5032129;28;20207;-29
2023/10/29 04:43:12;;;;;;;1.23;0.87;;;;;;;;;;5051178;28;20210;-32
2023/10/29 04:45:39;;;;;;;2.63;1.00;;;;;;;;;;5050904;28;20239;-30
2023/10/29 04:48:06;;;;;;;3.00;1.30;;;;;;;;;;5047294;28;20229;-32
2023/10/29 04:50:33;;;;;;;3.97;1.00;;;;;;;;;;5041957;28;20211;-33
2023/10/29 04:53:02;;;;;;;3.80;1.10;;;;;;;;;;5052086;28;20198;-30
2023/10/29 04:55:29;;;;;;;3.33;1.10;;;;;;;;;;5032715;28;20218;-32
2023/10/29 04:57:57;;;;;;;1.00;1.00;;;;;;;;;;5041451;28;20198;-30
2023/10/29 05:00:25;;;;;;;4.53;0.80;;;;;;;;;;5049580;28;20209;-30
2023/10/29 05:02:52;;;;;;;3.50;1.00;;;;;;;;;;5036448;28;20218;-35
2023/10/29 05:05:19;;;;;;;1.90;0.80;;;;;;;;;;5050714;28;20229;-31
2023/10/29 05:07:46;;;;;;;2.10;1.00;;;;;;;;;;5051137;28;20232;-32
2023/10/29 05:10:14;;;;;;;1.30;0.83;;;;;;;;;;5045475;28;20201;-31
2023/10/29 05:12:41;;;;;;;0.90;0.90;;;;;;;;;;5054204;28;20211;-30
2023/10/29 05:15:13;;;;;;;1.20;0.90;;;;;;;;;;5055115;28;20227;-30
2023/10/29 05:17:41;;;;;;;1.73;0.90;;;;;;;;;;5055642;28;20271;-30
2023/10/29 05:20:10;;;;;;;1.27;0.70;;;;;;;;;;5053324;28;20220;-31
2023/10/29 05:22:37;;;;;;;0.90;0.77;;;;;;;;;;5051927;28;20205;-30
2023/10/29 05:25:05;;;;;;;0.53;0.53;;;;;;;;;;5049912;28;20738;-29
2023/10/29 05:27:32;;;;;;;0.70;0.70;;;;;;;;;;5055481;28;20232;-29
2023/10/29 05:30:00;;;;;;;2.53;0.90;;;;;;;;;;5057777;28;20236;-29
2023/10/29 05:32:28;;;;;;;0.83;0.83;;;;;;;;;;5055481;28;20214;-31
2023/10/29 05:34:56;;;;;;;1.30;1.00;;;;;;;;;;5049881;28;20232;-32
2023/10/29 05:37:24;;;;;;;3.70;0.80;;;;;;;;;;5055464;28;20202;-30
2023/10/29 05:39:51;;;;;;;1.80;0.93;;;;;;;;;;5042892;28;20674;-31
2023/10/29 05:42:19;;;;;;;2.13;0.87;;;;;;;;;;5040233;28;20197;-30
2023/10/29 05:44:46;;;;;;;0.73;0.73;;;;;;;;;;5048079;28;20233;-29
2023/10/29 05:47:13;;;;;;;1.10;0.90;;;;;;;;;;5042465;28;20222;-30
2023/10/29 05:49:41;;;;;;;1.03;1.03;;;;;;;;;;5037284;28;20213;-31
2023/10/29 05:52:08;;;;;;;2.73;1.00;;;;;;;;;;5046113;28;20212;-29
2023/10/29 05:54:36;;;;;;;0.93;0.83;;;;;;;;;;5041368;28;20240;-30
2023/10/29 05:57:03;;;;;;;2.37;0.90;;;;;;;;;;5047759;28;20213;-31
2023/10/29 05:59:29;;;;;;;0.97;0.83;;;;;;;;;;5048651;28;20212;-30
2023/10/29 06:01:56;;;;;;;1.00;1.00;;;;;;;;;;5047704;28;20205;-32
2023/10/29 06:04:23;;;;;;;3.27;1.43;;;;;;;;;;5041014;28;20229;-33
2023/10/29 06:06:51;;;;;;;0.90;0.80;;;;;;;;;;5046715;28;20230;-31
2023/10/29 06:09:19;;;;;;;0.87;0.80;;;;;;;;;;5039487;28;20234;-31
2023/10/29 06:11:49;;;;;;;0.70;0.70;;;;;;;;;;5036813;28;20214;-32
2023/10/29 06:14:16;;;;;;;1.07;0.90;;;;;;;;;;5048836;28;20233;-30
2023/10/29 06:16:43;;;;;;;0.90;0.90;;;;;;;;;;5048420;28;20220;-29
2023/10/29 06:19:11;;;;;;;1.43;0.97;;;;;;;;;;5045296;28;20212;-30
2023/10/29 06:21:38;;;;;;;1.07;0.90;;;;;;;;;;5047412;28;20206;-31
2023/10/29 06:24:07;;;;;;;2.13;0.90;;;;;;;;;;5042434;28;20237;-30
2023/10/29 06:26:34;;;;;;;0.73;0.70;;;;;;;;;;5044624;28;20198;-31
2023/10/29 06:29:01;;;;;;;0.83;0.80;;;;;;;;;;5048837;28;20213;-30
2023/10/29 06:31:29;;;;;;;0.70;0.70;;;;;;;;;;5048550;28;20206;-29
2023/10/29 06:33:56;;;;;;;0.80;0.80;;;;;;;;;;5045206;28;20236;-30
2023/10/29 06:36:24;;;;;;;0.80;0.80;;;;;;;;;;5043931;28;20572;-29
2023/10/29 06:38:51;;;;;;;2.03;1.20;;;;;;;;;;5051359;28;20202;-30
2023/10/29 06:41:19;;;;;;;1.70;1.03;;;;;;;;;;5042583;28;20207;-29
2023/10/29 06:43:46;;;;;;;1.17;1.00;;;;;;;;;;5048389;28;20722;-29
2023/10/29 06:46:15;;;;;;;1.53;1.10;;;;;;;;;;5052540;28;20209;-30
2023/10/29 06:48:42;;;;;;;1.20;1.10;;;;;;;;;;5043175;28;20233;-30
2023/10/29 06:51:15;;;;;;;2.00;1.20;;;;;;;;;;5046364;28;20213;-29
2023/10/29 06:53:42;;;;;;;1.17;1.00;;;;;;;;;;5048920;28;20667;-30
2023/10/29 06:56:10;;;;;;;1.00;0.90;;;;;;;;;;5051002;28;20577;-29
2023/10/29 06:58:38;;;;;;;1.40;1.30;;;;;;;;;;5048604;28;20726;-33
2023/10/29 07:01:06;;;;;;;1.17;1.03;;;;;;;;;;5051312;28;20212;-30
2023/10/29 07:03:33;;;;;;;0.93;0.80;;;;;;;;;;5049330;28;20237;-30
2023/10/29 07:06:10;;;;;;;1.10;1.00;;;;;;;;;;5056736;28;20338;-30
2023/10/29 07:08:37;;;;;;;1.00;1.00;;;;;;;;;;5049318;28;20760;-30
2023/10/29 07:11:04;;;;;;;0.90;0.90;;;;;;;;;;5052345;28;20210;-31
2023/10/29 07:13:32;;;;;;;1.50;1.17;;;;;;;;;;5053909;28;20317;-30
2023/10/29 07:16:02;;;;;;;0.97;0.97;;;;;;;;;;5051594;28;20206;-31
2023/10/29 07:18:30;;;;;;;1.40;1.00;;;;;;;;;;5048746;28;20268;-31
2023/10/29 07:20:57;;;;;;;2.47;1.20;;;;;;;;;;5051388;28;20210;-31
2023/10/29 07:23:24;;;;;;;1.20;1.10;;;;;;;;;;5051750;28;20301;-30
2023/10/29 07:25:52;;;;;;;1.13;1.03;;;;;;;;;;5038576;28;20296;-31
2023/10/29 07:28:19;;;;;;;1.40;1.30;;;;;;;;;;5051707;28;20225;-34
2023/10/29 07:30:46;;;;;;;2.97;1.40;;;;;;;;;;5050580;28;20205;-33
2023/10/29 07:33:15;;;;;;;1.20;1.10;;;;;;;;;;5045653;28;20577;-31
2023/10/29 07:35:42;;;;;;;1.50;1.40;;;;;;;;;;5051489;28;20213;-31
2023/10/29 07:38:09;;;;;;;1.10;1.10;;;;;;;;;;5051374;28;20683;-33
2023/10/29 07:40:36;;;;;;;1.47;1.37;;;;;;;;;;5039181;28;20232;-30
2023/10/29 07:43:04;;;;;;;1.37;1.10;;;;;;;;;;5049915;28;20216;-31
2023/10/29 07:45:31;;;;;;;1.67;1.20;;;;;;;;;;5051263;28;20233;-36
2023/10/29 07:47:58;;;;;;;0.87;0.87;;;;;;;;;;5051038;28;20232;-30
2023/10/29 07:50:27;;;;;;;1.50;1.20;;;;;;;;;;5038264;28;20202;-30
2023/10/29 07:52:54;;;;;;;1.57;1.03;;;;;;;;;;5047941;28;20221;-29
2023/10/29 07:55:21;;;;;;;1.23;1.13;;;;;;;;;;5043415;28;20214;-32
2023/10/29 07:57:49;;;;;;;1.90;1.30;;;;;;;;;;5054099;28;20205;-33
2023/10/29 08:00:17;;;;;;;1.30;1.20;;;;;;;;;;5043365;28;20210;-29
2023/10/29 08:02:44;;;;;;;3.40;1.30;;;;;;;;;;5050408;28;20289;-30
2023/10/29 08:05:11;;;;;;;1.27;1.17;;;;;;;;;;5046563;28;20222;-30
2023/10/29 08:07:40;;;;;;;3.17;1.10;;;;;;;;;;5050567;28;20226;-31
2023/10/29 08:10:08;;;;;;;4.03;1.30;;;;;;;;;;5045296;28;20225;-30
2023/10/29 08:12:35;;;;;;;1.20;1.10;;;;;;;;;;5049413;28;20205;-30
2023/10/29 08:15:03;;;;;;;1.37;1.27;;;;;;;;;;5050475;28;20248;-30
2023/10/29 08:17:30;;;;;;;0.90;0.90;;;;;;;;;;5051320;28;20198;-32
2023/10/29 08:19:58;;;;;;;2.67;1.20;;;;;;;;;;5048492;28;20209;-31
2023/10/29 08:22:25;;;;;;;1.30;1.20;;;;;;;;;;5050079;28;20649;-31
2023/10/29 08:24:54;;;;;;;1.93;1.37;;;;;;;;;;5040860;28;20229;-29
2023/10/29 08:27:21;;;;;;;1.63;1.50;;;;;;;;;;5050305;28;20218;-30
2023/10/29 08:29:49;;;;;;;1.57;1.07;;;;;;;;;;5050801;28;20209;-30
2023/10/29 08:32:16;;;;;;;1.93;1.20;;;;;;;;;;5050104;28;20210;-30
2023/10/29 08:34:43;;;;;;;2.63;1.13;;;;;;;;;;5038486;28;20226;-30
2023/10/29 08:37:11;;;;;;;1.27;1.10;;;;;;;;;;5049429;28;20206;-29
2023/10/29 08:39:38;;;;;;;1.20;1.10;;;;;;;;;;5045286;28;20229;-30
2023/10/29 08:42:07;;;;;;;1.50;1.20;;;;;;;;;;5046976;28;20205;-30
2023/10/29 08:44:34;;;;;;;1.23;0.97;;;;;;;;;;5050701;28;20221;-32
2023/10/29 08:47:01;;;;;;;6.70;3.20;;;;;;;;;;5050154;28;20201;-31
2023/10/29 08:49:28;;;;;;;3.30;2.43;;;;;;;;;;5045387;28;20225;-30
2023/10/29 08:51:55;;;;;;;4.17;2.37;;;;;;;;;;5048432;28;20328;-30
2023/10/29 08:54:23;;;;;;;4.40;2.50;;;;;;;;;;5043385;28;20313;-30
2023/10/29 08:56:50;;;;;;;1.70;1.23;;;;;;;;;;5045707;28;20222;-30
2023/10/29 08:59:19;;;;;;;1.00;1.00;;;;;;;;;;5049913;28;20198;-30
2023/10/29 09:01:47;;;;;;;1.97;1.77;;;;;;;;;;5048744;28;20205;-29
2023/10/29 09:04:14;;;;;;;1.93;1.60;;;;;;;;;;5039297;28;20757;-30
2023/10/29 09:06:43;;;;;;;1.73;1.60;;;;;;;;;;5046342;28;20229;-31
2023/10/29 09:09:11;;;;;;;2.57;1.87;;;;;;;;;;5045804;28;20230;-30
2023/10/29 09:11:39;;;;;;;3.70;1.90;;;;;;;;;;5045063;28;20217;-32
2023/10/29 09:14:10;;;;;;;1.77;1.67;;;;;;;;;;5049826;28;20229;-31
2023/10/29 09:16:39;;;;;;;2.07;1.90;;;;;;;;;;5049990;28;20272;-32
2023/10/29 09:19:06;;;;;;;2.10;2.00;;;;;;;;;;5041401;28;20683;-31
2023/10/29 09:21:33;;;;;;;1.37;1.27;;;;;;;;;;5049697;28;20201;-30
2023/10/29 09:24:00;;;;;;;3.57;1.40;;;;;;;;;;5046759;28;20229;-30
2023/10/29 09:26:27;;;;;;;2.27;1.40;;;;;;;;;;5047612;28;20206;-30
2023/10/29 09:28:54;;;;;;;1.70;1.60;;;;;;;;;;5050595;28;20218;-30
2023/10/29 09:31:22;;;;;;;1.53;1.43;;;;;;;;;;5042892;28;20658;-30
2023/10/29 09:33:50;;;;;;;2.70;1.80;;;;;;;;;;5044825;28;20256;-31
2023/10/29 09:36:18;;;;;;;4.63;2.53;;;;;;;;;;5042353;28;20656;-30
2023/10/29 09:38:45;;;;;;;5.63;2.47;;;;;;;;;;5047600;28;20210;-30
2023/10/29 09:41:12;;;;;;;2.70;1.80;;;;;;;;;;5043164;28;20257;-31
2023/10/29 09:43:40;;;;;;;4.60;2.43;;;;;;;;;;5050219;28;20234;-32
2023/10/29 09:46:08;;;;;;;11.73;5.07;;;;;;;;;;5050960;28;20648;-29
2023/10/29 09:48:36;;;;;;;8.17;3.23;;;;;;;;;;5045222;28;20257;-30
2023/10/29 09:51:05;;;;;;;13.63;5.23;;;;;;;;;;5049783;28;20206;-30
2023/10/29 09:53:33;;;;;;;4.83;2.67;;;;;;;;;;5049780;28;20719;-33
2023/10/29 09:56:00;;;;;;;7.73;1.90;;;;;;;;;;5042178;28;20217;-31
2023/10/29 09:58:27;;;;;;;10.33;5.63;;;;;;;;;;5050023;28;20283;-34
2023/10/29 10:00:58;;;;;;;7.00;3.27;;;;;;;;;;5048907;28;20219;-31
2023/10/29 10:03:26;;;;;;;6.57;3.77;;;;;;;;;;5042014;28;20232;-29
2023/10/29 10:05:53;;;;;;;3.23;2.07;;;;;;;;;;5040779;28;20248;-31
2023/10/29 10:08:26;;;;;;;3.67;2.23;;;;;;;;;;5051823;28;20241;-30
2023/10/29 10:10:53;;;;;;;2.13;1.93;;;;;;;;;;5041211;28;20204;-31
2023/10/29 10:13:35;;;;;;;4.07;2.70;;;;;;;;;;5051692;28;20900;-30
2023/10/29 10:16:06;;;;;;;4.80;2.90;;;;;;;;;;5053854;28;20624;-31
2023/10/29 10:18:48;;;;;;;4.10;2.07;;;;;;;;;;5044155;28;20204;-30
2023/10/29 10:21:15;;;;;;;3.23;2.00;;;;;;;;;;5052439;28;20198;-30
2023/10/29 10:23:48;;;;;;;4.57;3.60;;;;;;;;;;5050950;28;20224;-32
2023/10/29 10:26:18;;;;;;;4.50;3.40;;;;;;;;;;5045694;28;20210;-30
2023/10/29 10:28:54;;;;;;;5.47;3.20;;;;;;;;;;5053959;28;20236;-30
2023/10/29 10:31:21;;;;;;;3.27;2.47;;;;;;;;;;5053564;28;20264;-32
2023/10/29 10:33:49;;;;;;;8.10;4.67;;;;;;;;;;5049634;28;20222;-31
2023/10/29 10:36:16;;;;;;;4.97;3.33;;;;;;;;;;5053784;28;20241;-29
2023/10/29 10:38:53;;;;;;;4.87;3.00;;;;;;;;;;5050878;28;20594;-30
2023/10/29 10:41:20;;;;;;;3.77;3.07;;;;;;;;;;5045127;28;20205;-30
2023/10/29 10:44:02;;;;;;;5.30;3.73;;;;;;;;;;5052969;28;20318;-30
2023/10/29 10:46:32;;;;;;;6.33;4.63;;;;;;;;;;5046380;28;20671;-30
2023/10/29 10:49:00;;;;;;;7.10;3.67;;;;;;;;;;5049130;28;20233;-31
2023/10/29 10:51:27;;;;;;;6.83;3.80;;;;;;;;;;5041704;28;20571;-30
2023/10/29 10:53:58;;;;;;;2.57;2.00;;;;;;;;;;5049368;28;20957;-30
2023/10/29 10:56:27;;;;;;;3.13;1.53;;;;;;;;;;5052328;28;20210;-31
2023/10/29 10:58:55;;;;;;;8.90;2.40;;;;;;;;;;5054124;28;20213;-29
2023/10/29 11:01:22;;;;;;;6.10;4.40;;;;;;;;;;5049881;28;20214;-31
2023/10/29 11:03:49;;;;;;;4.63;3.80;;;;;;;;;;5040733;28;20224;-29
2023/10/29 11:06:17;;;;;;;4.63;2.70;;;;;;;;;;5052364;28;20218;-29
2023/10/29 11:08:44;;;;;;;4.67;2.57;;;;;;;;;;5049680;28;20222;-30
2023/10/29 11:11:12;;;;;;;4.20;2.10;;;;;;;;;;5046321;28;20213;-32
2023/10/29 11:13:41;;;;;;;3.20;2.30;;;;;;;;;;5052179;28;20222;-31
2023/10/29 11:16:21;;;;;;;3.10;2.20;;;;;;;;;;5052461;28;20198;-31
2023/10/29 11:18:48;;;;;;;2.40;2.10;;;;;;;;;;5049536;28;20228;-30
2023/10/29 11:21:30;;;;;;;2.93;2.17;;;;;;;;;;5049090;28;20202;-31
2023/10/29 11:24:12;;;;;;;3.57;2.33;;;;;;;;;;5046916;28;20236;-31
2023/10/29 11:26:39;;;;;;;1.83;1.67;;;;;;;;;;5048266;28;20202;-31
2023/10/29 11:29:07;;;;;;;2.77;1.90;;;;;;;;;;5052010;28;20232;-29
2023/10/29 11:31:35;;;;;;;4.10;2.70;;;;;;;;;;5052483;28;20208;-29
2023/10/29 11:34:22;;;;;;;4.60;3.97;;;;;;;;;;5042596;28;20227;-29
2023/10/29 11:36:50;;;;;;;2.97;2.77;;;;;;;;;;5046735;28;20211;-31
2023/10/29 11:39:22;;;;;;;2.43;2.07;;;;;;;;;;5044776;28;20211;-30
2023/10/29 11:41:51;;;;;;;3.37;1.83;;;;;;;;;;5046994;28;20219;-30
2023/10/29 11:44:27;;;;;;;4.07;2.00;;;;;;;;;;5050145;28;20216;-29
2023/10/29 11:47:07;;;;;;;2.90;1.93;;;;;;;;;;5052293;28;20201;-31
2023/10/29 11:49:53;;;;;;;5.00;1.87;;;;;;;;;;5036227;28;20218;-30
2023/10/29 11:52:20;;;;;;;2.87;1.97;;;;;;;;;;5050555;28;20207;-31
2023/10/29 11:57:16;;;;;;;3.30;2.10;;;;;;;;;;5129480;22;20684;-29
2023/10/29 11:59:58;;;;;;;8.43;4.07;;;;;;;;;;5066287;28;20213;-31
2023/10/29 12:02:26;;;;;;;4.83;2.60;;;;;;;;;;5064527;28;20557;-30
2023/10/29 12:04:53;;;;;;;2.13;1.83;;;;;;;;;;5073011;28;20273;-29
2023/10/29 12:07:29;;;;;;;12.40;4.87;;;;;;;;;;5074266;28;20206;-29
2023/10/29 12:10:02;;;;;;;12.23;5.30;;;;;;;;;;5070401;28;20225;-30
2023/10/29 12:12:29;;;;;;;9.00;4.07;;;;;;;;;;5071929;28;20198;-30
2023/10/29 12:14:57;;;;;;;2.07;1.20;;;;;;;;;;5072720;28;20226;-30
2023/10/29 12:17:27;;;;;;;2.07;1.20;;;;;;;;;;5071870;28;20206;-29
2023/10/29 12:19:54;;;;;;;1.30;0.90;;;;;;;;;;5062365;28;20283;-29
2023/10/29 12:22:22;;;;;;;2.30;0.90;;;;;;;;;;5070863;28;20213;-29
2023/10/29 12:24:50;;;;;;;0.87;0.87;;;;;;;;;;5069276;28;20849;-32
2023/10/29 12:27:18;;;;;;;1.73;1.00;;;;;;;;;;5072650;28;20205;-30
2023/10/29 12:29:46;;;;;;;0.80;0.80;;;;;;;;;;5073106;28;20222;-28
2023/10/29 12:32:18;;;;;;;0.40;0.40;;;;;;;;;;5067776;28;20206;-29
2023/10/29 12:34:51;;;;;;;1.60;0.70;;;;;;;;;;5068026;28;20224;-30
2023/10/29 12:37:55;;;;;;;0.80;0.40;;;;;;;;;;5059355;28;20212;-29
2023/10/29 12:40:27;;;;;;;0.47;0.47;;;;;;;;;;5063799;28;20213;-30
2023/10/29 12:42:54;;;;;;;0.50;0.50;;;;;;;;;;5073324;28;20208;-29
2023/10/29 12:45:28;;;;;;;0.33;0.33;;;;;;;;;;5076713;28;20221;-30
2023/10/29 12:48:17;;;;;;;0.47;0.43;;;;;;;;;;5076755;28;20565;-29
2023/10/29 12:50:52;;;;;;;1.43;0.70;;;;;;;;;;5067914;28;20213;-30
2023/10/29 12:53:22;;;;;;;0.60;0.50;;;;;;;;;;5071629;28;20800;-29
2023/10/29 12:55:50;;;;;;;0.40;0.40;;;;;;;;;;5065371;28;20205;-28
2023/10/29 12:58:17;;;;;;;0.60;0.50;;;;;;;;;;5071552;28;20217;-29
2023/10/29 13:00:44;;;;;;;0.47;0.43;;;;;;;;;;5072241;28;20204;-30
2023/10/29 13:03:12;;;;;;;3.53;0.50;;;;;;;;;;5071751;28;20639;-30
2023/10/29 13:05:39;;;;;;;1.17;0.60;;;;;;;;;;5053608;28;20229;-29
2023/10/29 13:08:11;;;;;;;0.50;0.50;;;;;;;;;;5067208;28;20816;-30
2023/10/29 13:10:38;;;;;;;0.50;0.50;;;;;;;;;;5055696;28;20225;-30
2023/10/29 13:13:06;;;;;;;0.50;0.40;;;;;;;;;;5065788;28;20630;-30
2023/10/29 13:15:33;;;;;;;0.40;0.40;;;;;;;;;;5071369;28;20255;-29
2023/10/29 13:18:01;;;;;;;0.50;0.50;;;;;;;;;;5071421;28;20199;-30
2023/10/29 13:20:30;;;;;;;0.60;0.50;;;;;;;;;;5060261;28;20208;-29
2023/10/29 13:22:58;;;;;;;0.73;0.70;;;;;;;;;;5066909;28;20639;-30
2023/10/29 13:25:26;;;;;;;0.50;0.50;;;;;;;;;;5064967;28;20227;-31
2023/10/29 13:27:53;;;;;;;0.43;0.43;;;;;;;;;;5067800;28;20296;-31
2023/10/29 13:30:20;;;;;;;0.50;0.50;;;;;;;;;;5071534;28;20762;-31
2023/10/29 13:32:48;;;;;;;1.23;0.57;;;;;;;;;;5071364;28;20207;-32
2023/10/29 13:35:16;;;;;;;2.57;0.53;;;;;;;;;;5064752;28;20225;-31
2023/10/29 13:37:45;;;;;;;1.10;0.43;;;;;;;;;;5063754;28;20227;-32
2023/10/29 13:40:14;;;;;;;1.03;0.50;;;;;;;;;;5062722;28;20217;-29
2023/10/29 13:42:43;;;;;;;0.50;0.50;;;;;;;;;;5069841;28;20651;-31
2023/10/29 13:45:13;;;;;;;0.30;0.30;;;;;;;;;;5071202;28;20229;-30
2023/10/29 13:47:40;;;;;;;2.90;0.37;;;;;;;;;;5068483;28;20202;-31
2023/10/29 13:50:07;;;;;;;2.33;0.50;;;;;;;;;;5071925;28;20239;-31
2023/10/29 13:52:34;;;;;;;0.60;0.53;;;;;;;;;;5072225;28;20205;-31
2023/10/29 13:55:01;;;;;;;3.73;0.63;;;;;;;;;;5066411;28;20225;-31
2023/10/29 13:57:28;;;;;;;0.43;0.43;;;;;;;;;;5069709;28;20209;-31
2023/10/29 13:59:57;;;;;;;0.43;0.40;;;;;;;;;;5073274;28;20208;-29
2023/10/29 14:02:24;;;;;;;0.73;0.47;;;;;;;;;;5069942;28;20893;-31
2023/10/29 14:04:52;;;;;;;0.80;0.60;;;;;;;;;;5061598;28;20225;-31
2023/10/29 14:07:21;;;;;;;0.33;0.33;;;;;;;;;;5066629;28;20201;-30
2023/10/29 14:09:48;;;;;;;0.40;0.37;;;;;;;;;;5062777;28;20662;-30
2023/10/29 14:12:15;;;;;;;0.30;0.30;;;;;;;;;;5063885;28;20215;-31
2023/10/29 14:14:43;;;;;;;0.50;0.40;;;;;;;;;;5060146;28;20232;-30
2023/10/29 14:17:12;;;;;;;0.93;0.53;;;;;;;;;;5070097;28;20205;-31
2023/10/29 14:19:39;;;;;;;0.70;0.60;;;;;;;;;;5064442;28;20220;-30
2023/10/29 14:22:06;;;;;;;0.60;0.60;;;;;;;;;;5070470;28;20215;-30
2023/10/29 14:24:33;;;;;;;1.00;0.47;;;;;;;;;;5059044;28;20225;-30
2023/10/29 14:27:11;;;;;;;1.93;0.60;;;;;;;;;;5064006;28;20201;-31
2023/10/29 14:29:38;;;;;;;0.97;0.50;;;;;;;;;;5067504;28;20220;-30
2023/10/29 14:32:05;;;;;;;0.60;0.60;;;;;;;;;;5066569;28;20206;-31
2023/10/29 14:34:34;;;;;;;0.80;0.53;;;;;;;;;;5066635;28;20229;-30
2023/10/29 14:37:11;;;;;;;0.50;0.50;;;;;;;;;;5069605;28;20203;-30
2023/10/29 14:39:38;;;;;;;0.40;0.40;;;;;;;;;;5063673;28;20220;-31
2023/10/29 14:42:05;;;;;;;1.93;0.93;;;;;;;;;;5064528;28;20209;-29
2023/10/29 14:44:33;;;;;;;0.30;0.30;;;;;;;;;;5069739;28;20225;-30
2023/10/29 14:47:01;;;;;;;0.40;0.40;;;;;;;;;;5069780;28;20209;-30
2023/10/29 14:49:28;;;;;;;0.73;0.70;;;;;;;;;;5059828;28;20228;-30
2023/10/29 14:51:56;;;;;;;0.50;0.47;;;;;;;;;;5070202;28;20284;-31